N1DB KGNV-KORL
Flight info
| Callsign | N1DB |
|---|---|
| Flight time | 0h 44m |
| Altitude | 7000 |
| Route | OCF LEESE3 |
| Aircraft | PA34/L-SDFGRY/S |
Departure
| Time | 2026-05-04 23:30 |
|---|---|
| Airport | Gainesville Regional Airport (KGNV) |
Arrival
| Time | 2026-05-05 00:14 |
|---|---|
| Airport | Orlando Executive Airport (KORL) |
| Time | Latitude | Longitude | Altitude | Speed | Heading |
|---|---|---|---|---|---|
| 2026-05-04 23:09 | 29.69850 | -82.27088 | 154 ft | 0 kts | 149° |
| 2026-05-04 23:14 | 29.69850 | -82.27087 | 154 ft | 0 kts | 150° |
| 2026-05-04 23:21 | 29.69840 | -82.27084 | 154 ft | 3 kts | 178° |
| 2026-05-04 23:22 | 29.69804 | -82.27103 | 154 ft | 8 kts | 197° |
| 2026-05-04 23:22 | 29.69786 | -82.27107 | 154 ft | 0 kts | 184° |
| 2026-05-04 23:23 | 29.69771 | -82.27104 | 154 ft | 5 kts | 165° |
| 2026-05-04 23:23 | 29.69735 | -82.27151 | 154 ft | 12 kts | 243° |
| 2026-05-04 23:24 | 29.69684 | -82.27256 | 154 ft | 17 kts | 241° |
| 2026-05-04 23:24 | 29.69621 | -82.27389 | 154 ft | 15 kts | 244° |
| 2026-05-04 23:24 | 29.69563 | -82.27506 | 154 ft | 18 kts | 238° |
| 2026-05-04 23:24 | 29.69498 | -82.27640 | 154 ft | 19 kts | 242° |
| 2026-05-04 23:25 | 29.69424 | -82.27792 | 154 ft | 22 kts | 242° |
| 2026-05-04 23:25 | 29.69346 | -82.27953 | 154 ft | 18 kts | 241° |
| 2026-05-04 23:25 | 29.69276 | -82.28095 | 154 ft | 20 kts | 239° |
| 2026-05-04 23:25 | 29.69202 | -82.28158 | 154 ft | 1 kts | 205° |
| 2026-05-04 23:26 | 29.69188 | -82.28165 | 154 ft | 3 kts | 201° |
| 2026-05-04 23:26 | 29.69151 | -82.28170 | 154 ft | 3 kts | 162° |
| 2026-05-04 23:26 | 29.69150 | -82.28169 | 154 ft | 0 kts | 161° |
| 2026-05-04 23:26 | 29.69146 | -82.28168 | 154 ft | 0 kts | 158° |
| 2026-05-04 23:27 | 29.69143 | -82.28167 | 154 ft | 0 kts | 155° |
| 2026-05-04 23:27 | 29.68964 | -82.27982 | 157 ft | 0 kts | 156° |
| 2026-05-04 23:27 | 29.68951 | -82.28051 | 154 ft | 4 kts | 310° |
| 2026-05-04 23:27 | 29.68984 | -82.28071 | 154 ft | 2 kts | 5° |
| 2026-05-04 23:28 | 29.68989 | -82.28070 | 154 ft | 0 kts | 14° |
| 2026-05-04 23:28 | 29.68992 | -82.28069 | 154 ft | 2 kts | 15° |
| 2026-05-04 23:29 | 29.69028 | -82.28053 | 154 ft | 9 kts | 34° |
| 2026-05-04 23:29 | 29.69037 | -82.27918 | 154 ft | 41 kts | 103° |
| 2026-05-04 23:29 | 29.68922 | -82.27350 | 219 ft | 90 kts | 105° |
| 2026-05-04 23:29 | 29.68713 | -82.26609 | 476 ft | 98 kts | 106° |
| 2026-05-04 23:30 | 29.68558 | -82.25875 | 780 ft | 91 kts | 103° |
| 2026-05-04 23:30 | 29.68413 | -82.25183 | 1051 ft | 88 kts | 103° |
| 2026-05-04 23:30 | 29.68244 | -82.24511 | 1308 ft | 88 kts | 115° |
| 2026-05-04 23:30 | 29.67734 | -82.24096 | 1568 ft | 97 kts | 156° |
| 2026-05-04 23:31 | 29.67046 | -82.23956 | 1826 ft | 104 kts | 165° |
| 2026-05-04 23:31 | 29.66304 | -82.23869 | 2123 ft | 109 kts | 168° |
| 2026-05-04 23:31 | 29.65539 | -82.23812 | 2439 ft | 110 kts | 170° |
| 2026-05-04 23:31 | 29.64743 | -82.23770 | 2701 ft | 116 kts | 173° |
| 2026-05-04 23:32 | 29.63921 | -82.23739 | 2984 ft | 118 kts | 174° |
| 2026-05-04 23:32 | 29.63093 | -82.23712 | 3278 ft | 118 kts | 175° |
| 2026-05-04 23:32 | 29.62262 | -82.23689 | 3574 ft | 118 kts | 175° |
| 2026-05-04 23:32 | 29.61429 | -82.23668 | 3869 ft | 119 kts | 176° |
| 2026-05-04 23:33 | 29.60598 | -82.23647 | 4160 ft | 119 kts | 177° |
| 2026-05-04 23:33 | 29.59763 | -82.23626 | 4454 ft | 119 kts | 177° |
| 2026-05-04 23:33 | 29.58928 | -82.23605 | 4748 ft | 119 kts | 178° |
| 2026-05-04 23:33 | 29.58093 | -82.23585 | 5047 ft | 119 kts | 179° |
| 2026-05-04 23:34 | 29.57256 | -82.23564 | 5355 ft | 119 kts | 180° |
| 2026-05-04 23:34 | 29.56419 | -82.23543 | 5650 ft | 120 kts | 181° |
| 2026-05-04 23:34 | 29.55577 | -82.23522 | 5955 ft | 120 kts | 182° |
| 2026-05-04 23:34 | 29.54740 | -82.23502 | 6258 ft | 120 kts | 182° |
| 2026-05-04 23:35 | 29.53902 | -82.23482 | 6556 ft | 120 kts | 182° |
| 2026-05-04 23:35 | 29.53059 | -82.23462 | 6844 ft | 121 kts | 183° |
| 2026-05-04 23:35 | 29.52205 | -82.23442 | 7045 ft | 130 kts | 183° |
| 2026-05-04 23:35 | 29.51215 | -82.23421 | 6986 ft | 148 kts | 182° |
| 2026-05-04 23:36 | 29.50158 | -82.23393 | 6981 ft | 153 kts | 181° |
| 2026-05-04 23:36 | 29.49076 | -82.23365 | 6973 ft | 155 kts | 182° |
| 2026-05-04 23:36 | 29.47985 | -82.23337 | 6974 ft | 156 kts | 182° |
| 2026-05-04 23:36 | 29.46884 | -82.23309 | 6978 ft | 157 kts | 182° |
| 2026-05-04 23:37 | 29.45775 | -82.23282 | 6986 ft | 158 kts | 182° |
| 2026-05-04 23:37 | 29.44658 | -82.23254 | 6977 ft | 159 kts | 182° |
| 2026-05-04 23:37 | 29.43540 | -82.23227 | 6977 ft | 159 kts | 182° |
| 2026-05-04 23:37 | 29.42420 | -82.23200 | 6970 ft | 159 kts | 182° |
| 2026-05-04 23:38 | 29.41286 | -82.23173 | 6972 ft | 163 kts | 182° |
| 2026-05-04 23:38 | 29.40112 | -82.23145 | 6852 ft | 174 kts | 181° |
| 2026-05-04 23:38 | 29.38874 | -82.23114 | 6647 ft | 178 kts | 182° |
| 2026-05-04 23:38 | 29.37621 | -82.23083 | 6441 ft | 179 kts | 181° |
| 2026-05-04 23:39 | 29.36367 | -82.23052 | 6233 ft | 178 kts | 181° |
| 2026-05-04 23:39 | 29.35112 | -82.23022 | 6017 ft | 177 kts | 181° |
| 2026-05-04 23:39 | 29.33869 | -82.22992 | 5793 ft | 176 kts | 180° |
| 2026-05-04 23:39 | 29.32639 | -82.22962 | 5562 ft | 175 kts | 180° |
| 2026-05-04 23:40 | 29.31411 | -82.22933 | 5354 ft | 175 kts | 179° |
| 2026-05-04 23:40 | 29.30186 | -82.22903 | 5148 ft | 175 kts | 178° |
| 2026-05-04 23:40 | 29.28962 | -82.22874 | 4960 ft | 174 kts | 178° |
| 2026-05-04 23:40 | 29.27788 | -82.22845 | 4992 ft | 163 kts | 178° |
| 2026-05-04 23:41 | 29.26664 | -82.22817 | 4984 ft | 158 kts | 178° |
| 2026-05-04 23:41 | 29.25567 | -82.22791 | 4990 ft | 155 kts | 178° |
| 2026-05-04 23:41 | 29.24480 | -82.22765 | 4994 ft | 154 kts | 179° |
| 2026-05-04 23:41 | 29.23395 | -82.22739 | 4993 ft | 154 kts | 178° |
| 2026-05-04 23:42 | 29.22315 | -82.22713 | 4994 ft | 154 kts | 178° |
| 2026-05-04 23:42 | 29.21237 | -82.22685 | 4992 ft | 153 kts | 178° |
| 2026-05-04 23:42 | 29.20159 | -82.22656 | 4994 ft | 153 kts | 178° |
| 2026-05-04 23:42 | 29.19082 | -82.22640 | 4993 ft | 153 kts | 179° |
| 2026-05-04 23:43 | 29.18003 | -82.22618 | 4993 ft | 154 kts | 178° |
| 2026-05-04 23:43 | 29.16928 | -82.22496 | 4986 ft | 153 kts | 163° |
| 2026-05-04 23:43 | 29.16120 | -82.21736 | 4988 ft | 153 kts | 121° |
| 2026-05-04 23:43 | 29.15628 | -82.20653 | 4991 ft | 153 kts | 118° |
| 2026-05-04 23:44 | 29.15094 | -82.19589 | 4991 ft | 153 kts | 122° |
| 2026-05-04 23:44 | 29.14511 | -82.18552 | 4990 ft | 154 kts | 124° |
| 2026-05-04 23:44 | 29.13894 | -82.17539 | 4990 ft | 153 kts | 126° |
| 2026-05-04 23:44 | 29.13260 | -82.16549 | 4990 ft | 153 kts | 126° |
| 2026-05-04 23:45 | 29.12607 | -82.15564 | 4991 ft | 153 kts | 127° |
| 2026-05-04 23:45 | 29.11950 | -82.14593 | 4992 ft | 153 kts | 127° |
| 2026-05-04 23:45 | 29.11286 | -82.13624 | 4993 ft | 154 kts | 128° |
| 2026-05-04 23:45 | 29.10616 | -82.12658 | 4990 ft | 154 kts | 128° |
| 2026-05-04 23:46 | 29.09946 | -82.11697 | 4990 ft | 153 kts | 128° |
| 2026-05-04 23:46 | 29.09273 | -82.10737 | 4987 ft | 153 kts | 129° |
| 2026-05-04 23:46 | 29.08602 | -82.09782 | 4991 ft | 153 kts | 129° |
| 2026-05-04 23:46 | 29.07931 | -82.08829 | 4992 ft | 153 kts | 129° |
| 2026-05-04 23:47 | 29.07256 | -82.07871 | 4991 ft | 153 kts | 129° |
| 2026-05-04 23:47 | 29.06581 | -82.06915 | 4992 ft | 153 kts | 129° |
| 2026-05-04 23:47 | 29.05908 | -82.05962 | 5002 ft | 153 kts | 128° |
| 2026-05-04 23:47 | 29.05233 | -82.05007 | 4999 ft | 153 kts | 128° |
| 2026-05-04 23:48 | 29.04557 | -82.04051 | 4986 ft | 153 kts | 128° |
| 2026-05-04 23:48 | 29.03881 | -82.03095 | 4986 ft | 153 kts | 128° |
| 2026-05-04 23:48 | 29.03207 | -82.02141 | 4991 ft | 153 kts | 128° |
| 2026-05-04 23:48 | 29.02533 | -82.01190 | 4997 ft | 153 kts | 128° |
| 2026-05-04 23:49 | 29.01859 | -82.00237 | 4983 ft | 152 kts | 128° |
| 2026-05-04 23:49 | 29.01187 | -81.99290 | 4996 ft | 152 kts | 128° |
| 2026-05-04 23:49 | 29.00516 | -81.98345 | 4977 ft | 152 kts | 128° |
| 2026-05-04 23:49 | 28.99848 | -81.97402 | 4986 ft | 151 kts | 128° |
| 2026-05-04 23:50 | 28.99181 | -81.96462 | 4984 ft | 151 kts | 128° |
| 2026-05-04 23:50 | 28.98512 | -81.95519 | 4999 ft | 152 kts | 129° |
| 2026-05-04 23:50 | 28.97840 | -81.94571 | 4992 ft | 152 kts | 128° |
| 2026-05-04 23:50 | 28.97169 | -81.93624 | 4994 ft | 152 kts | 128° |
| 2026-05-04 23:51 | 28.96497 | -81.92678 | 4993 ft | 152 kts | 128° |
| 2026-05-04 23:51 | 28.95826 | -81.91731 | 4986 ft | 152 kts | 128° |
| 2026-05-04 23:51 | 28.95157 | -81.90788 | 4980 ft | 151 kts | 128° |
| 2026-05-04 23:51 | 28.94491 | -81.89850 | 4993 ft | 151 kts | 128° |
| 2026-05-04 23:52 | 28.93813 | -81.88894 | 4885 ft | 159 kts | 128° |
| 2026-05-04 23:52 | 28.93095 | -81.87881 | 4668 ft | 166 kts | 128° |
| 2026-05-04 23:52 | 28.92302 | -81.86897 | 4457 ft | 171 kts | 145° |
| 2026-05-04 23:52 | 28.91134 | -81.86561 | 4252 ft | 174 kts | 171° |
| 2026-05-04 23:53 | 28.89915 | -81.86459 | 4057 ft | 174 kts | 173° |
| 2026-05-04 23:53 | 28.88693 | -81.86379 | 3862 ft | 173 kts | 173° |
| 2026-05-04 23:53 | 28.87481 | -81.86302 | 3668 ft | 172 kts | 173° |
| 2026-05-04 23:53 | 28.86274 | -81.86232 | 3475 ft | 172 kts | 173° |
| 2026-05-04 23:54 | 28.85068 | -81.86175 | 3283 ft | 172 kts | 173° |
| 2026-05-04 23:54 | 28.83862 | -81.86135 | 3095 ft | 171 kts | 173° |
| 2026-05-04 23:54 | 28.82659 | -81.86100 | 2896 ft | 171 kts | 173° |
| 2026-05-04 23:54 | 28.81462 | -81.86067 | 2704 ft | 170 kts | 172° |
| 2026-05-04 23:55 | 28.80268 | -81.86049 | 2513 ft | 170 kts | 173° |
| 2026-05-04 23:55 | 28.79078 | -81.86040 | 2323 ft | 169 kts | 173° |
| 2026-05-04 23:55 | 28.76714 | -81.86039 | 1951 ft | 167 kts | 173° |
| 2026-05-04 23:56 | 28.75582 | -81.86058 | 1981 ft | 157 kts | 173° |
| 2026-05-04 23:56 | 28.74489 | -81.86084 | 1977 ft | 155 kts | 173° |
| 2026-05-04 23:56 | 28.73406 | -81.86116 | 1982 ft | 154 kts | 174° |
| 2026-05-04 23:56 | 28.72329 | -81.86144 | 1978 ft | 153 kts | 174° |
| 2026-05-04 23:57 | 28.71256 | -81.86169 | 1978 ft | 152 kts | 173° |
| 2026-05-04 23:57 | 28.70184 | -81.86189 | 1983 ft | 152 kts | 173° |
| 2026-05-04 23:57 | 28.69116 | -81.86214 | 1980 ft | 152 kts | 173° |
| 2026-05-04 23:57 | 28.68046 | -81.86233 | 1982 ft | 152 kts | 172° |
| 2026-05-04 23:58 | 28.67040 | -81.85971 | 1979 ft | 146 kts | 155° |
| 2026-05-04 23:58 | 28.66077 | -81.85581 | 1984 ft | 146 kts | 154° |
| 2026-05-04 23:58 | 28.65114 | -81.85180 | 1987 ft | 146 kts | 153° |
| 2026-05-04 23:58 | 28.64147 | -81.84783 | 1979 ft | 146 kts | 153° |
| 2026-05-04 23:59 | 28.63178 | -81.84386 | 1982 ft | 146 kts | 153° |
| 2026-05-04 23:59 | 28.62209 | -81.83994 | 1981 ft | 146 kts | 153° |
| 2026-05-04 23:59 | 28.61243 | -81.83599 | 1978 ft | 146 kts | 153° |
| 2026-05-04 23:59 | 28.60279 | -81.83202 | 1975 ft | 146 kts | 153° |
| 2026-05-05 00:00 | 28.59314 | -81.82805 | 1974 ft | 145 kts | 153° |
| 2026-05-05 00:00 | 28.58995 | -81.82670 | 1976 ft | 145 kts | 153° |
| 2026-05-05 00:00 | 28.57400 | -81.82001 | 1973 ft | 145 kts | 153° |
| 2026-05-05 00:00 | 28.56444 | -81.81598 | 1976 ft | 145 kts | 153° |
| 2026-05-05 00:01 | 28.55486 | -81.81196 | 1976 ft | 146 kts | 153° |
| 2026-05-05 00:01 | 28.54528 | -81.80794 | 1973 ft | 145 kts | 153° |
| 2026-05-05 00:01 | 28.53569 | -81.80399 | 1977 ft | 145 kts | 153° |
| 2026-05-05 00:01 | 28.52613 | -81.80001 | 1972 ft | 145 kts | 153° |
| 2026-05-05 00:02 | 28.51655 | -81.79609 | 1974 ft | 145 kts | 153° |
| 2026-05-05 00:02 | 28.50693 | -81.79218 | 1971 ft | 146 kts | 153° |
| 2026-05-05 00:02 | 28.49729 | -81.78824 | 1979 ft | 146 kts | 154° |
| 2026-05-05 00:02 | 28.48766 | -81.78419 | 1981 ft | 146 kts | 153° |
| 2026-05-05 00:03 | 28.47928 | -81.77815 | 1983 ft | 140 kts | 136° |
| 2026-05-05 00:03 | 28.47180 | -81.77089 | 1987 ft | 140 kts | 134° |
| 2026-05-05 00:03 | 28.46467 | -81.76330 | 1978 ft | 138 kts | 123° |
| 2026-05-05 00:03 | 28.46211 | -81.75303 | 1988 ft | 136 kts | 96° |
| 2026-05-05 00:04 | 28.46144 | -81.74226 | 1992 ft | 136 kts | 94° |
| 2026-05-05 00:04 | 28.46092 | -81.73148 | 1994 ft | 135 kts | 94° |
| 2026-05-05 00:04 | 28.46043 | -81.72072 | 1992 ft | 136 kts | 94° |
| 2026-05-05 00:04 | 28.45988 | -81.70992 | 1992 ft | 136 kts | 94° |
| 2026-05-05 00:05 | 28.45933 | -81.69916 | 1992 ft | 135 kts | 94° |
| 2026-05-05 00:05 | 28.45881 | -81.68839 | 1999 ft | 136 kts | 94° |
| 2026-05-05 00:05 | 28.45925 | -81.67759 | 1990 ft | 136 kts | 87° |
| 2026-05-05 00:05 | 28.45911 | -81.66687 | 1994 ft | 135 kts | 94° |
| 2026-05-05 00:06 | 28.45863 | -81.65615 | 2000 ft | 135 kts | 94° |
| 2026-05-05 00:06 | 28.45810 | -81.64539 | 2000 ft | 136 kts | 94° |
| 2026-05-05 00:06 | 28.45758 | -81.63460 | 1997 ft | 136 kts | 94° |
| 2026-05-05 00:06 | 28.45701 | -81.62382 | 2001 ft | 136 kts | 94° |
| 2026-05-05 00:07 | 28.45641 | -81.61300 | 2007 ft | 136 kts | 94° |
| 2026-05-05 00:07 | 28.45582 | -81.60214 | 2006 ft | 137 kts | 94° |
| 2026-05-05 00:07 | 28.45524 | -81.59122 | 2002 ft | 137 kts | 94° |
| 2026-05-05 00:07 | 28.45582 | -81.58031 | 1997 ft | 138 kts | 84° |
| 2026-05-05 00:08 | 28.45766 | -81.56952 | 1993 ft | 138 kts | 79° |
| 2026-05-05 00:08 | 28.46027 | -81.55891 | 1990 ft | 139 kts | 76° |
| 2026-05-05 00:08 | 28.46314 | -81.54842 | 1988 ft | 137 kts | 84° |
| 2026-05-05 00:08 | 28.46357 | -81.53767 | 1992 ft | 137 kts | 78° |
| 2026-05-05 00:09 | 28.46673 | -81.52738 | 2001 ft | 138 kts | 69° |
| 2026-05-05 00:09 | 28.47142 | -81.51769 | 2003 ft | 140 kts | 61° |
| 2026-05-05 00:09 | 28.47718 | -81.50850 | 1952 ft | 143 kts | 60° |
| 2026-05-05 00:09 | 28.48243 | -81.49880 | 1938 ft | 141 kts | 68° |
| 2026-05-05 00:10 | 28.48600 | -81.48847 | 1925 ft | 139 kts | 72° |
| 2026-05-05 00:10 | 28.49000 | -81.47837 | 1920 ft | 139 kts | 69° |
| 2026-05-05 00:10 | 28.49379 | -81.46816 | 1927 ft | 138 kts | 72° |
| 2026-05-05 00:10 | 28.49736 | -81.45792 | 1918 ft | 138 kts | 70° |
| 2026-05-05 00:11 | 28.50128 | -81.44810 | 1876 ft | 133 kts | 68° |
| 2026-05-05 00:11 | 28.50529 | -81.43886 | 1866 ft | 125 kts | 68° |
| 2026-05-05 00:11 | 28.50871 | -81.43006 | 1710 ft | 118 kts | 70° |
| 2026-05-05 00:11 | 28.51193 | -81.42112 | 1531 ft | 126 kts | 72° |
| 2026-05-05 00:12 | 28.51538 | -81.41178 | 1401 ft | 128 kts | 70° |
| 2026-05-05 00:12 | 28.51881 | -81.40227 | 1258 ft | 128 kts | 71° |
| 2026-05-05 00:12 | 28.52233 | -81.39298 | 1144 ft | 125 kts | 69° |
| 2026-05-05 00:12 | 28.52595 | -81.38396 | 1016 ft | 124 kts | 67° |
| 2026-05-05 00:13 | 28.52923 | -81.37564 | 833 ft | 99 kts | 71° |
| 2026-05-05 00:13 | 28.53190 | -81.36829 | 655 ft | 104 kts | 71° |
| 2026-05-05 00:13 | 28.53467 | -81.36062 | 523 ft | 104 kts | 70° |
| 2026-05-05 00:13 | 28.53754 | -81.35313 | 405 ft | 98 kts | 70° |
| 2026-05-05 00:14 | 28.54006 | -81.34649 | 302 ft | 85 kts | 70° |
| 2026-05-05 00:14 | 28.54230 | -81.34071 | 185 ft | 73 kts | 71° |
| 2026-05-05 00:14 | 28.54420 | -81.33565 | 107 ft | 62 kts | 69° |
| 2026-05-05 00:14 | 28.54550 | -81.33345 | 108 ft | 21 kts | 37° |
| 2026-05-05 00:15 | 28.54637 | -81.33275 | 109 ft | 9 kts | 37° |
| 2026-05-05 00:15 | 28.54657 | -81.33270 | 109 ft | 0 kts | 342° |
| 2026-05-05 00:15 | 28.54707 | -81.33317 | 109 ft | 16 kts | 275° |
| 2026-05-05 00:16 | 28.54701 | -81.33445 | 107 ft | 15 kts | 265° |
| 2026-05-05 00:16 | 28.54688 | -81.33561 | 107 ft | 14 kts | 265° |
| 2026-05-05 00:16 | 28.54711 | -81.33646 | 108 ft | 10 kts | 318° |
| 2026-05-05 00:16 | 28.54771 | -81.33686 | 108 ft | 9 kts | 343° |
| 2026-05-05 00:17 | 28.54819 | -81.33723 | 108 ft | 6 kts | 322° |